Star Epsilon — V7NZ7 — position and weather

sailwx.info

Track history (hours):
 
Tides and Currents Weather Stations Pressure Air Temp Water Temp Dewpoint Dewpoint Depression Visibility Wind Speed Wind Dir Waves Ship Positions

Star Epsilon

Last reported at 2016-Feb-08 08:32 UTC. Time now 2016-Feb-10 22:10 UTC.
Position N 29°12' W 094°39'.

Length 189 m; draft 8.5 m.

Type: Ship. MMSI: 538003043.

Date/timePositionNaut miles runAvg speedWind from/ knotsBaromVisibWave heightAir tempDewpointWater temp
2016-Feb-08 08:32N 29°12' W 094°39'0 0.0
2016-Feb-08 06:11N 29°12' W 094°39'9 0.2
2016-Feb-06 10:10N 29°20' W 094°42'3 0.7
2016-Feb-06 06:24N 29°21' W 094°44'0 0.0
2016-Feb-06 05:30N 29°21' W 094°44'0 0.0
2016-Feb-06 04:33N 29°21' W 094°44'0 0.0
2016-Feb-06 03:30N 29°21' W 094°44'0 0.0
2016-Feb-06 02:30N 29°21' W 094°44'  
2016-Feb-03 06:31N 29°13' W 094°37'0 0.0
2016-Feb-03 05:31N 29°13' W 094°37'0 0.0
2016-Feb-03 04:31N 29°13' W 094°37'0 0.0
2016-Feb-03 03:31N 29°12' W 094°37'0 0.0
2016-Feb-03 00:22N 29°12' W 094°37'0 0.0
2016-Feb-02 23:16N 29°12' W 094°37'0 0.0
2016-Feb-02 22:25N 29°12' W 094°37'0 0.0
2016-Feb-02 06:28N 29°13' W 094°37'0 0.0
2016-Feb-02 05:16N 29°13' W 094°37'0 0.0
2016-Feb-02 04:31N 29°13' W 094°37'0 0.0
2016-Feb-02 03:31N 29°13' W 094°37'0 0.0
2016-Feb-02 01:31N 29°13' W 094°37'0 0.1
2016-Feb-02 00:28N 29°12' W 094°37'0 0.0
2016-Feb-01 20:13N 29°12' W 094°37'0 0.0
2016-Jan-31 12:28N 29°13' W 094°37'0 0.0
2016-Jan-31 08:22N 29°13' W 094°37'0 0.0
2016-Jan-31 05:22N 29°13' W 094°37'0 0.0
2016-Jan-30 21:16N 29°13' W 094°37'0 0.0
2016-Jan-30 20:13N 29°13' W 094°37'0 0.0
2016-Jan-30 18:13N 29°13' W 094°37'0 0.0
2016-Jan-30 17:31N 29°13' W 094°37'0 0.0
2016-Jan-30 16:31N 29°13' W 094°37'0 0.0
2016-Jan-30 15:31N 29°13' W 094°37'0 0.0
2016-Jan-30 14:19N 29°13' W 094°37'0 0.0
2016-Jan-30 13:28N 29°13' W 094°37'0 0.0
2016-Jan-30 10:16N 29°13' W 094°37'0 0.0
2016-Jan-30 07:04N 29°13' W 094°37'0 0.0
2016-Jan-30 06:22N 29°13' W 094°37'0 0.0
2016-Jan-30 04:31N 29°13' W 094°37'0 0.0
2016-Jan-30 03:31N 29°13' W 094°37'0 0.0
2016-Jan-30 00:31N 29°13' W 094°37'0 0.0
2016-Jan-29 23:13N 29°13' W 094°37'0 0.0
2016-Jan-29 22:22N 29°13' W 094°37'0 0.0
2016-Jan-29 21:31N 29°13' W 094°37'0 0.0
2016-Jan-29 20:31N 29°13' W 094°37'0 0.1
2016-Jan-29 17:16N 29°12' W 094°37'0 0.0
2016-Jan-29 16:07N 29°12' W 094°37'0 0.1
2016-Jan-29 15:31N 29°12' W 094°37'0 0.0
2016-Jan-29 14:28N 29°12' W 094°37'0 0.1
2016-Jan-29 13:31N 29°12' W 094°37'0 0.1
2016-Jan-29 12:28N 29°12' W 094°37'0 0.0
2016-Jan-29 11:31N 29°12' W 094°37'0 0.0
2016-Jan-29 10:25N 29°12' W 094°37'0 0.0
2016-Jan-29 09:28N 29°12' W 094°37'  
Track history (hours):
 
Tides and Currents Weather Stations Pressure Air Temp Water Temp Dewpoint Dewpoint Depression Visibility Wind Speed Wind Dir Waves Ship Positions

Star Epsilon

Last reported at 2016-Feb-08 08:32 UTC. Time now 2016-Feb-10 22:10 UTC.
Position N 29°12' W 094°39'.

Length 189 m; draft 8.5 m.

Type: Ship. MMSI: 538003043.

Date/timePositionNaut miles runAvg speedWind from/ knotsBaromVisibWave heightAir tempDewpointWater temp
2016-Feb-08 08:32N 29°12' W 094°39'0 0.0
2016-Feb-08 06:11N 29°12' W 094°39'9 0.2
2016-Feb-06 10:10N 29°20' W 094°42'3 0.7
2016-Feb-06 06:24N 29°21' W 094°44'0 0.0
2016-Feb-06 05:30N 29°21' W 094°44'0 0.0
2016-Feb-06 04:33N 29°21' W 094°44'0 0.0
2016-Feb-06 03:30N 29°21' W 094°44'0 0.0
2016-Feb-06 02:30N 29°21' W 094°44'  
2016-Feb-03 06:31N 29°13' W 094°37'0 0.0
2016-Feb-03 05:31N 29°13' W 094°37'0 0.0
2016-Feb-03 04:31N 29°13' W 094°37'0 0.0
2016-Feb-03 03:31N 29°12' W 094°37'0 0.0
2016-Feb-03 00:22N 29°12' W 094°37'0 0.0
2016-Feb-02 23:16N 29°12' W 094°37'0 0.0
2016-Feb-02 22:25N 29°12' W 094°37'0 0.0
2016-Feb-02 06:28N 29°13' W 094°37'0 0.0
2016-Feb-02 05:16N 29°13' W 094°37'0 0.0
2016-Feb-02 04:31N 29°13' W 094°37'0 0.0
2016-Feb-02 03:31N 29°13' W 094°37'0 0.0
2016-Feb-02 01:31N 29°13' W 094°37'0 0.1
2016-Feb-02 00:28N 29°12' W 094°37'0 0.0
2016-Feb-01 20:13N 29°12' W 094°37'0 0.0
2016-Jan-31 12:28N 29°13' W 094°37'0 0.0
2016-Jan-31 08:22N 29°13' W 094°37'0 0.0
2016-Jan-31 05:22N 29°13' W 094°37'0 0.0
2016-Jan-30 21:16N 29°13' W 094°37'0 0.0
2016-Jan-30 20:13N 29°13' W 094°37'0 0.0
2016-Jan-30 18:13N 29°13' W 094°37'0 0.0
2016-Jan-30 17:31N 29°13' W 094°37'0 0.0
2016-Jan-30 16:31N 29°13' W 094°37'0 0.0
2016-Jan-30 15:31N 29°13' W 094°37'0 0.0
2016-Jan-30 14:19N 29°13' W 094°37'0 0.0
2016-Jan-30 13:28N 29°13' W 094°37'0 0.0
2016-Jan-30 10:16N 29°13' W 094°37'0 0.0
2016-Jan-30 07:04N 29°13' W 094°37'0 0.0
2016-Jan-30 06:22N 29°13' W 094°37'0 0.0
2016-Jan-30 04:31N 29°13' W 094°37'0 0.0
2016-Jan-30 03:31N 29°13' W 094°37'0 0.0
2016-Jan-30 00:31N 29°13' W 094°37'0 0.0
2016-Jan-29 23:13N 29°13' W 094°37'0 0.0
2016-Jan-29 22:22N 29°13' W 094°37'0 0.0
2016-Jan-29 21:31N 29°13' W 094°37'0 0.0
2016-Jan-29 20:31N 29°13' W 094°37'0 0.1
2016-Jan-29 17:16N 29°12' W 094°37'0 0.0
2016-Jan-29 16:07N 29°12' W 094°37'0 0.1
2016-Jan-29 15:31N 29°12' W 094°37'0 0.0
2016-Jan-29 14:28N 29°12' W 094°37'0 0.1
2016-Jan-29 13:31N 29°12' W 094°37'0 0.1
2016-Jan-29 12:28N 29°12' W 094°37'0 0.0
2016-Jan-29 11:31N 29°12' W 094°37'0 0.0
2016-Jan-29 10:25N 29°12' W 094°37'0 0.0
2016-Jan-29 09:28N 29°12' W 094°37'  

Dump ship's entire track history